sensor_id;sensor_type;location;lat;lon;timestamp;temperature;humidity
15156;DHT22;7678;50.058;8.306;2023-07-13T00:01:26;19.00;61.40
15156;DHT22;7678;50.058;8.306;2023-07-13T00:03:54;18.90;61.80
15156;DHT22;7678;50.058;8.306;2023-07-13T00:06:23;19.00;61.80
15156;DHT22;7678;50.058;8.306;2023-07-13T00:08:53;19.10;61.60
15156;DHT22;7678;50.058;8.306;2023-07-13T00:11:21;19.30;60.50
15156;DHT22;7678;50.058;8.306;2023-07-13T00:13:49;19.30;60.30
15156;DHT22;7678;50.058;8.306;2023-07-13T00:16:17;19.30;60.90
15156;DHT22;7678;50.058;8.306;2023-07-13T00:18:46;19.40;60.40
15156;DHT22;7678;50.058;8.306;2023-07-13T00:21:14;19.40;60.10
15156;DHT22;7678;50.058;8.306;2023-07-13T00:23:43;19.50;60.00
15156;DHT22;7678;50.058;8.306;2023-07-13T00:26:13;19.50;61.10
15156;DHT22;7678;50.058;8.306;2023-07-13T00:28:41;19.60;60.00
15156;DHT22;7678;50.058;8.306;2023-07-13T00:31:11;19.50;59.30
15156;DHT22;7678;50.058;8.306;2023-07-13T00:33:41;19.60;59.50
15156;DHT22;7678;50.058;8.306;2023-07-13T00:36:10;19.60;59.60
15156;DHT22;7678;50.058;8.306;2023-07-13T00:38:38;19.70;60.00
15156;DHT22;7678;50.058;8.306;2023-07-13T00:41:07;19.60;59.70
15156;DHT22;7678;50.058;8.306;2023-07-13T00:43:37;19.80;61.10
15156;DHT22;7678;50.058;8.306;2023-07-13T00:46:15;19.50;60.00
15156;DHT22;7678;50.058;8.306;2023-07-13T00:48:47;19.40;60.10
15156;DHT22;7678;50.058;8.306;2023-07-13T00:51:21;19.40;60.70
15156;DHT22;7678;50.058;8.306;2023-07-13T00:53:50;19.30;61.10
15156;DHT22;7678;50.058;8.306;2023-07-13T00:56:19;19.30;61.30
15156;DHT22;7678;50.058;8.306;2023-07-13T00:58:49;19.20;61.40
15156;DHT22;7678;50.058;8.306;2023-07-13T01:01:18;19.20;61.20
15156;DHT22;7678;50.058;8.306;2023-07-13T01:03:46;19.20;61.50
15156;DHT22;7678;50.058;8.306;2023-07-13T01:06:14;19.10;61.60
15156;DHT22;7678;50.058;8.306;2023-07-13T01:08:44;18.90;62.50
15156;DHT22;7678;50.058;8.306;2023-07-13T01:11:12;18.70;63.40
15156;DHT22;7678;50.058;8.306;2023-07-13T01:13:46;18.70;63.60
15156;DHT22;7678;50.058;8.306;2023-07-13T01:16:22;18.80;64.20
15156;DHT22;7678;50.058;8.306;2023-07-13T01:18:51;18.80;63.90
15156;DHT22;7678;50.058;8.306;2023-07-13T01:21:21;18.70;64.50
15156;DHT22;7678;50.058;8.306;2023-07-13T01:23:50;18.50;65.00
15156;DHT22;7678;50.058;8.306;2023-07-13T01:26:18;18.60;65.50
15156;DHT22;7678;50.058;8.306;2023-07-13T01:28:46;18.50;65.20
15156;DHT22;7678;50.058;8.306;2023-07-13T01:31:14;18.30;66.00
15156;DHT22;7678;50.058;8.306;2023-07-13T01:33:43;18.40;66.10
15156;DHT22;7678;50.058;8.306;2023-07-13T01:36:12;18.60;66.30
15156;DHT22;7678;50.058;8.306;2023-07-13T01:38:41;18.50;66.40
15156;DHT22;7678;50.058;8.306;2023-07-13T01:41:11;18.50;66.60
15156;DHT22;7678;50.058;8.306;2023-07-13T01:43:39;18.60;66.50
15156;DHT22;7678;50.058;8.306;2023-07-13T01:46:08;18.50;65.30
15156;DHT22;7678;50.058;8.306;2023-07-13T01:48:49;18.50;67.30
15156;DHT22;7678;50.058;8.306;2023-07-13T01:51:18;18.40;67.20
15156;DHT22;7678;50.058;8.306;2023-07-13T01:53:49;18.40;67.40
15156;DHT22;7678;50.058;8.306;2023-07-13T01:56:18;18.50;68.10
15156;DHT22;7678;50.058;8.306;2023-07-13T01:58:46;18.40;67.40
15156;DHT22;7678;50.058;8.306;2023-07-13T02:01:14;18.20;67.80
15156;DHT22;7678;50.058;8.306;2023-07-13T02:03:42;18.20;68.70
15156;DHT22;7678;50.058;8.306;2023-07-13T02:06:10;18.30;67.20
15156;DHT22;7678;50.058;8.306;2023-07-13T02:08:40;18.40;67.20
15156;DHT22;7678;50.058;8.306;2023-07-13T02:11:12;18.20;67.90
15156;DHT22;7678;50.058;8.306;2023-07-13T02:13:40;18.20;68.70
15156;DHT22;7678;50.058;8.306;2023-07-13T02:16:08;18.20;69.10
15156;DHT22;7678;50.058;8.306;2023-07-13T02:18:37;18.20;69.30
15156;DHT22;7678;50.058;8.306;2023-07-13T02:21:05;18.10;69.10
15156;DHT22;7678;50.058;8.306;2023-07-13T02:23:35;18.00;69.00
15156;DHT22;7678;50.058;8.306;2023-07-13T02:26:04;18.00;69.30
15156;DHT22;7678;50.058;8.306;2023-07-13T02:28:34;18.00;69.90
15156;DHT22;7678;50.058;8.306;2023-07-13T02:31:06;17.80;70.90
15156;DHT22;7678;50.058;8.306;2023-07-13T02:33:35;17.90;71.00
15156;DHT22;7678;50.058;8.306;2023-07-13T02:36:04;18.00;70.30
15156;DHT22;7678;50.058;8.306;2023-07-13T02:38:33;17.90;70.10
15156;DHT22;7678;50.058;8.306;2023-07-13T02:41:02;18.00;71.50
15156;DHT22;7678;50.058;8.306;2023-07-13T02:43:31;17.90;70.70
15156;DHT22;7678;50.058;8.306;2023-07-13T02:46:01;17.90;70.40
15156;DHT22;7678;50.058;8.306;2023-07-13T02:48:36;17.70;71.00
15156;DHT22;7678;50.058;8.306;2023-07-13T02:51:04;17.70;71.20
15156;DHT22;7678;50.058;8.306;2023-07-13T02:53:33;17.60;73.10
15156;DHT22;7678;50.058;8.306;2023-07-13T02:56:04;17.70;70.10
15156;DHT22;7678;50.058;8.306;2023-07-13T02:58:32;17.70;70.50
15156;DHT22;7678;50.058;8.306;2023-07-13T03:01:08;17.80;69.80
15156;DHT22;7678;50.058;8.306;2023-07-13T03:03:37;17.80;67.50
15156;DHT22;7678;50.058;8.306;2023-07-13T03:06:05;17.70;67.80
15156;DHT22;7678;50.058;8.306;2023-07-13T03:08:35;17.70;68.00
15156;DHT22;7678;50.058;8.306;2023-07-13T03:11:06;17.80;69.10
15156;DHT22;7678;50.058;8.306;2023-07-13T03:13:35;17.70;69.40
15156;DHT22;7678;50.058;8.306;2023-07-13T03:16:04;17.70;69.40
15156;DHT22;7678;50.058;8.306;2023-07-13T03:18:35;17.70;69.00
15156;DHT22;7678;50.058;8.306;2023-07-13T03:21:04;17.50;69.20
15156;DHT22;7678;50.058;8.306;2023-07-13T03:23:32;17.50;69.70
15156;DHT22;7678;50.058;8.306;2023-07-13T03:26:02;17.50;68.80
15156;DHT22;7678;50.058;8.306;2023-07-13T03:28:31;17.40;67.90
15156;DHT22;7678;50.058;8.306;2023-07-13T03:31:01;17.50;67.90
15156;DHT22;7678;50.058;8.306;2023-07-13T03:33:30;17.50;68.40
15156;DHT22;7678;50.058;8.306;2023-07-13T03:36:00;17.50;65.70
15156;DHT22;7678;50.058;8.306;2023-07-13T03:38:28;17.60;65.80
15156;DHT22;7678;50.058;8.306;2023-07-13T03:40:56;17.50;65.90
15156;DHT22;7678;50.058;8.306;2023-07-13T03:43:25;17.60;65.90
15156;DHT22;7678;50.058;8.306;2023-07-13T03:45:53;17.70;66.30
15156;DHT22;7678;50.058;8.306;2023-07-13T03:48:21;17.70;67.20
15156;DHT22;7678;50.058;8.306;2023-07-13T03:50:50;17.70;67.50
15156;DHT22;7678;50.058;8.306;2023-07-13T03:53:19;17.60;66.80
15156;DHT22;7678;50.058;8.306;2023-07-13T03:55:48;17.70;68.30
15156;DHT22;7678;50.058;8.306;2023-07-13T03:58:29;17.70;69.30
15156;DHT22;7678;50.058;8.306;2023-07-13T04:00:59;17.50;68.50
15156;DHT22;7678;50.058;8.306;2023-07-13T04:03:28;17.50;67.80
15156;DHT22;7678;50.058;8.306;2023-07-13T04:06:00;17.50;68.80
15156;DHT22;7678;50.058;8.306;2023-07-13T04:08:32;17.40;68.90
15156;DHT22;7678;50.058;8.306;2023-07-13T04:11:02;17.30;70.20
15156;DHT22;7678;50.058;8.306;2023-07-13T04:13:30;17.50;70.10
15156;DHT22;7678;50.058;8.306;2023-07-13T04:15:59;17.50;70.40
15156;DHT22;7678;50.058;8.306;2023-07-13T04:18:27;17.50;71.50
15156;DHT22;7678;50.058;8.306;2023-07-13T04:20:56;17.40;71.50
15156;DHT22;7678;50.058;8.306;2023-07-13T04:23:24;17.40;72.30
15156;DHT22;7678;50.058;8.306;2023-07-13T04:25:54;17.50;73.90
15156;DHT22;7678;50.058;8.306;2023-07-13T04:28:25;17.50;75.60
15156;DHT22;7678;50.058;8.306;2023-07-13T04:30:54;17.50;75.70
15156;DHT22;7678;50.058;8.306;2023-07-13T04:33:23;17.50;75.90
15156;DHT22;7678;50.058;8.306;2023-07-13T04:35:53;17.40;76.70
15156;DHT22;7678;50.058;8.306;2023-07-13T04:38:28;17.50;76.80
15156;DHT22;7678;50.058;8.306;2023-07-13T04:41:02;17.60;77.50
15156;DHT22;7678;50.058;8.306;2023-07-13T04:43:32;17.50;77.70
15156;DHT22;7678;50.058;8.306;2023-07-13T04:46:05;17.70;77.50
15156;DHT22;7678;50.058;8.306;2023-07-13T04:48:34;17.60;78.40
15156;DHT22;7678;50.058;8.306;2023-07-13T04:51:03;17.60;79.30
15156;DHT22;7678;50.058;8.306;2023-07-13T04:53:32;17.70;78.70
15156;DHT22;7678;50.058;8.306;2023-07-13T04:56:04;17.80;79.90
15156;DHT22;7678;50.058;8.306;2023-07-13T04:58:33;17.60;78.70
15156;DHT22;7678;50.058;8.306;2023-07-13T05:01:02;17.40;81.00
15156;DHT22;7678;50.058;8.306;2023-07-13T05:03:31;17.40;81.60
15156;DHT22;7678;50.058;8.306;2023-07-13T05:06:02;17.80;81.10
15156;DHT22;7678;50.058;8.306;2023-07-13T05:08:31;17.90;79.70
15156;DHT22;7678;50.058;8.306;2023-07-13T05:10:59;17.90;79.80
15156;DHT22;7678;50.058;8.306;2023-07-13T05:13:29;17.90;81.00
15156;DHT22;7678;50.058;8.306;2023-07-13T05:15:58;18.10;79.10
15156;DHT22;7678;50.058;8.306;2023-07-13T05:18:29;18.10;79.00
15156;DHT22;7678;50.058;8.306;2023-07-13T05:20:59;18.00;79.20
15156;DHT22;7678;50.058;8.306;2023-07-13T05:23:30;18.10;77.90
15156;DHT22;7678;50.058;8.306;2023-07-13T05:25:59;18.20;76.60
15156;DHT22;7678;50.058;8.306;2023-07-13T05:28:29;18.20;75.60
15156;DHT22;7678;50.058;8.306;2023-07-13T05:30:59;18.20;76.10
15156;DHT22;7678;50.058;8.306;2023-07-13T05:33:28;18.40;74.50
15156;DHT22;7678;50.058;8.306;2023-07-13T05:35:56;18.40;72.80
15156;DHT22;7678;50.058;8.306;2023-07-13T05:38:28;18.40;72.30
15156;DHT22;7678;50.058;8.306;2023-07-13T05:40:57;18.30;71.70
15156;DHT22;7678;50.058;8.306;2023-07-13T05:43:33;18.40;71.70
15156;DHT22;7678;50.058;8.306;2023-07-13T05:46:01;18.30;72.10
15156;DHT22;7678;50.058;8.306;2023-07-13T05:48:33;18.50;71.00
15156;DHT22;7678;50.058;8.306;2023-07-13T05:51:02;18.60;70.00
15156;DHT22;7678;50.058;8.306;2023-07-13T05:53:31;18.60;71.10
15156;DHT22;7678;50.058;8.306;2023-07-13T05:56:00;18.80;70.00
15156;DHT22;7678;50.058;8.306;2023-07-13T05:58:29;18.70;68.70
15156;DHT22;7678;50.058;8.306;2023-07-13T06:01:03;18.80;68.30
15156;DHT22;7678;50.058;8.306;2023-07-13T06:03:33;19.10;68.90
15156;DHT22;7678;50.058;8.306;2023-07-13T06:06:01;19.20;68.20
15156;DHT22;7678;50.058;8.306;2023-07-13T06:08:30;19.00;67.50
15156;DHT22;7678;50.058;8.306;2023-07-13T06:11:05;19.10;68.30
15156;DHT22;7678;50.058;8.306;2023-07-13T06:13:36;19.10;68.40
15156;DHT22;7678;50.058;8.306;2023-07-13T06:16:06;19.10;66.00
15156;DHT22;7678;50.058;8.306;2023-07-13T06:18:36;19.20;64.30
15156;DHT22;7678;50.058;8.306;2023-07-13T06:21:10;19.20;63.90
15156;DHT22;7678;50.058;8.306;2023-07-13T06:23:39;19.30;64.10
15156;DHT22;7678;50.058;8.306;2023-07-13T06:26:08;19.30;63.00
15156;DHT22;7678;50.058;8.306;2023-07-13T06:28:37;19.30;62.30
15156;DHT22;7678;50.058;8.306;2023-07-13T06:31:09;19.40;62.90
15156;DHT22;7678;50.058;8.306;2023-07-13T06:33:38;19.50;63.30
15156;DHT22;7678;50.058;8.306;2023-07-13T06:36:08;19.50;62.90
15156;DHT22;7678;50.058;8.306;2023-07-13T06:38:36;19.70;63.50
15156;DHT22;7678;50.058;8.306;2023-07-13T06:41:06;19.70;63.50
15156;DHT22;7678;50.058;8.306;2023-07-13T06:43:35;19.80;61.80
15156;DHT22;7678;50.058;8.306;2023-07-13T06:46:03;19.70;61.90
15156;DHT22;7678;50.058;8.306;2023-07-13T06:48:33;19.90;64.40
15156;DHT22;7678;50.058;8.306;2023-07-13T06:51:02;20.00;62.40
15156;DHT22;7678;50.058;8.306;2023-07-13T06:53:31;20.20;61.70
15156;DHT22;7678;50.058;8.306;2023-07-13T06:56:00;20.20;61.50
15156;DHT22;7678;50.058;8.306;2023-07-13T06:58:28;20.20;62.40
15156;DHT22;7678;50.058;8.306;2023-07-13T07:00:57;20.30;62.40
15156;DHT22;7678;50.058;8.306;2023-07-13T07:03:25;20.30;62.80
15156;DHT22;7678;50.058;8.306;2023-07-13T07:06:00;20.30;60.90
15156;DHT22;7678;50.058;8.306;2023-07-13T07:08:29;20.40;62.90
15156;DHT22;7678;50.058;8.306;2023-07-13T07:10:57;20.60;62.20
15156;DHT22;7678;50.058;8.306;2023-07-13T07:13:25;20.60;62.50
15156;DHT22;7678;50.058;8.306;2023-07-13T07:15:55;20.70;61.70
15156;DHT22;7678;50.058;8.306;2023-07-13T07:18:23;20.80;62.90
15156;DHT22;7678;50.058;8.306;2023-07-13T07:20:52;20.80;62.30
15156;DHT22;7678;50.058;8.306;2023-07-13T07:23:25;21.10;61.70
15156;DHT22;7678;50.058;8.306;2023-07-13T07:25:53;20.90;61.70
15156;DHT22;7678;50.058;8.306;2023-07-13T07:28:22;21.10;62.30
15156;DHT22;7678;50.058;8.306;2023-07-13T07:30:54;21.10;58.60
15156;DHT22;7678;50.058;8.306;2023-07-13T07:33:25;21.10;58.80
15156;DHT22;7678;50.058;8.306;2023-07-13T07:35:54;21.30;60.30
15156;DHT22;7678;50.058;8.306;2023-07-13T07:38:27;21.30;58.40
15156;DHT22;7678;50.058;8.306;2023-07-13T07:40:55;21.50;58.30
15156;DHT22;7678;50.058;8.306;2023-07-13T07:43:26;21.40;58.60
15156;DHT22;7678;50.058;8.306;2023-07-13T07:45:54;21.50;58.90
15156;DHT22;7678;50.058;8.306;2023-07-13T07:48:23;21.80;59.00
15156;DHT22;7678;50.058;8.306;2023-07-13T07:50:51;21.80;59.20
15156;DHT22;7678;50.058;8.306;2023-07-13T07:53:20;21.80;57.00
15156;DHT22;7678;50.058;8.306;2023-07-13T07:55:49;21.70;56.00
15156;DHT22;7678;50.058;8.306;2023-07-13T07:58:21;21.80;55.70
15156;DHT22;7678;50.058;8.306;2023-07-13T08:00:53;22.10;55.50
15156;DHT22;7678;50.058;8.306;2023-07-13T08:03:27;22.20;55.70
15156;DHT22;7678;50.058;8.306;2023-07-13T08:06:15;22.30;54.20
15156;DHT22;7678;50.058;8.306;2023-07-13T08:08:50;22.40;55.00
15156;DHT22;7678;50.058;8.306;2023-07-13T08:11:20;22.50;56.00
15156;DHT22;7678;50.058;8.306;2023-07-13T08:13:53;22.50;54.40
15156;DHT22;7678;50.058;8.306;2023-07-13T08:16:22;22.40;54.40
15156;DHT22;7678;50.058;8.306;2023-07-13T08:18:50;22.50;54.60
15156;DHT22;7678;50.058;8.306;2023-07-13T08:21:18;22.70;52.60
15156;DHT22;7678;50.058;8.306;2023-07-13T08:23:47;22.60;52.50
15156;DHT22;7678;50.058;8.306;2023-07-13T08:26:15;22.30;53.40
15156;DHT22;7678;50.058;8.306;2023-07-13T08:28:45;22.40;52.30
15156;DHT22;7678;50.058;8.306;2023-07-13T08:31:14;22.30;52.50
15156;DHT22;7678;50.058;8.306;2023-07-13T08:33:43;22.50;52.60
15156;DHT22;7678;50.058;8.306;2023-07-13T08:36:12;23.10;52.70
15156;DHT22;7678;50.058;8.306;2023-07-13T08:38:40;22.90;52.80
15156;DHT22;7678;50.058;8.306;2023-07-13T08:41:12;22.50;52.00
15156;DHT22;7678;50.058;8.306;2023-07-13T08:43:46;22.40;52.30
15156;DHT22;7678;50.058;8.306;2023-07-13T08:46:19;22.60;53.70
15156;DHT22;7678;50.058;8.306;2023-07-13T08:48:57;22.60;52.20
15156;DHT22;7678;50.058;8.306;2023-07-13T08:51:36;22.70;51.10
15156;DHT22;7678;50.058;8.306;2023-07-13T08:54:15;22.80;52.20
15156;DHT22;7678;50.058;8.306;2023-07-13T08:56:50;22.90;51.60
15156;DHT22;7678;50.058;8.306;2023-07-13T08:59:24;23.20;51.10
15156;DHT22;7678;50.058;8.306;2023-07-13T09:02:05;23.20;50.60
15156;DHT22;7678;50.058;8.306;2023-07-13T09:04:42;23.20;50.40
15156;DHT22;7678;50.058;8.306;2023-07-13T09:07:18;23.10;51.30
15156;DHT22;7678;50.058;8.306;2023-07-13T09:09:57;22.90;49.80
15156;DHT22;7678;50.058;8.306;2023-07-13T09:12:35;23.10;49.90
15156;DHT22;7678;50.058;8.306;2023-07-13T09:15:21;23.10;50.70
15156;DHT22;7678;50.058;8.306;2023-07-13T09:17:54;23.40;50.90
15156;DHT22;7678;50.058;8.306;2023-07-13T09:20:28;23.40;50.20
15156;DHT22;7678;50.058;8.306;2023-07-13T09:23:04;23.60;49.90
15156;DHT22;7678;50.058;8.306;2023-07-13T09:25:36;23.90;49.90
15156;DHT22;7678;50.058;8.306;2023-07-13T09:28:16;23.90;49.90
15156;DHT22;7678;50.058;8.306;2023-07-13T09:30:54;23.50;49.20
15156;DHT22;7678;50.058;8.306;2023-07-13T09:33:33;23.50;49.90
15156;DHT22;7678;50.058;8.306;2023-07-13T09:36:17;23.70;50.60
15156;DHT22;7678;50.058;8.306;2023-07-13T09:38:59;23.80;49.80
15156;DHT22;7678;50.058;8.306;2023-07-13T09:41:39;23.50;48.80
15156;DHT22;7678;50.058;8.306;2023-07-13T09:46:54;24.10;49.90
15156;DHT22;7678;50.058;8.306;2023-07-13T09:49:25;24.00;49.90
15156;DHT22;7678;50.058;8.306;2023-07-13T09:52:00;24.10;49.30
15156;DHT22;7678;50.058;8.306;2023-07-13T09:54:35;24.30;48.60
15156;DHT22;7678;50.058;8.306;2023-07-13T09:57:12;24.30;48.80
15156;DHT22;7678;50.058;8.306;2023-07-13T09:59:45;24.30;49.10
15156;DHT22;7678;50.058;8.306;2023-07-13T10:02:27;24.40;49.10
15156;DHT22;7678;50.058;8.306;2023-07-13T10:04:59;24.50;49.20
15156;DHT22;7678;50.058;8.306;2023-07-13T10:07:29;24.60;49.20
15156;DHT22;7678;50.058;8.306;2023-07-13T10:10:00;24.70;48.60
15156;DHT22;7678;50.058;8.306;2023-07-13T10:12:38;24.80;49.90
15156;DHT22;7678;50.058;8.306;2023-07-13T10:15:18;24.90;48.00
15156;DHT22;7678;50.058;8.306;2023-07-13T10:17:59;24.80;47.80
15156;DHT22;7678;50.058;8.306;2023-07-13T10:20:30;24.70;48.90
15156;DHT22;7678;50.058;8.306;2023-07-13T10:23:01;24.60;48.70
15156;DHT22;7678;50.058;8.306;2023-07-13T10:25:34;24.70;48.80
15156;DHT22;7678;50.058;8.306;2023-07-13T10:28:27;24.80;47.20
15156;DHT22;7678;50.058;8.306;2023-07-13T10:31:01;24.80;47.70
15156;DHT22;7678;50.058;8.306;2023-07-13T10:33:31;24.70;46.70
15156;DHT22;7678;50.058;8.306;2023-07-13T10:36:05;24.50;47.10
15156;DHT22;7678;50.058;8.306;2023-07-13T10:38:36;24.90;46.50
15156;DHT22;7678;50.058;8.306;2023-07-13T10:41:07;25.30;46.10
15156;DHT22;7678;50.058;8.306;2023-07-13T10:43:42;25.50;46.00
15156;DHT22;7678;50.058;8.306;2023-07-13T10:46:14;25.60;46.80
15156;DHT22;7678;50.058;8.306;2023-07-13T10:48:46;25.80;46.00
15156;DHT22;7678;50.058;8.306;2023-07-13T10:51:18;26.00;45.90
15156;DHT22;7678;50.058;8.306;2023-07-13T10:54:14;26.10;45.50
15156;DHT22;7678;50.058;8.306;2023-07-13T10:56:50;26.10;43.80
15156;DHT22;7678;50.058;8.306;2023-07-13T10:59:25;26.00;43.80
15156;DHT22;7678;50.058;8.306;2023-07-13T11:01:58;26.10;43.50
15156;DHT22;7678;50.058;8.306;2023-07-13T11:04:39;26.00;43.40
15156;DHT22;7678;50.058;8.306;2023-07-13T11:07:16;25.90;44.90
15156;DHT22;7678;50.058;8.306;2023-07-13T11:09:50;26.50;44.60
15156;DHT22;7678;50.058;8.306;2023-07-13T11:15:15;26.70;43.30
15156;DHT22;7678;50.058;8.306;2023-07-13T11:17:57;27.30;43.70
15156;DHT22;7678;50.058;8.306;2023-07-13T11:20:39;27.20;43.20
15156;DHT22;7678;50.058;8.306;2023-07-13T11:23:21;26.90;43.30
15156;DHT22;7678;50.058;8.306;2023-07-13T11:25:55;26.50;42.70
15156;DHT22;7678;50.058;8.306;2023-07-13T11:28:29;26.90;44.60
15156;DHT22;7678;50.058;8.306;2023-07-13T11:31:11;26.90;43.20
15156;DHT22;7678;50.058;8.306;2023-07-13T11:33:56;27.00;42.60
15156;DHT22;7678;50.058;8.306;2023-07-13T11:36:36;26.90;42.80
15156;DHT22;7678;50.058;8.306;2023-07-13T11:39:19;27.40;42.50
15156;DHT22;7678;50.058;8.306;2023-07-13T11:41:51;27.30;43.00
15156;DHT22;7678;50.058;8.306;2023-07-13T11:44:26;27.50;43.00
15156;DHT22;7678;50.058;8.306;2023-07-13T11:46:56;27.30;42.30
15156;DHT22;7678;50.058;8.306;2023-07-13T11:49:30;27.30;41.30
15156;DHT22;7678;50.058;8.306;2023-07-13T11:52:02;27.20;40.90
15156;DHT22;7678;50.058;8.306;2023-07-13T11:54:32;27.60;41.80
15156;DHT22;7678;50.058;8.306;2023-07-13T11:57:03;28.10;41.60
15156;DHT22;7678;50.058;8.306;2023-07-13T11:59:39;27.80;40.60
15156;DHT22;7678;50.058;8.306;2023-07-13T12:02:14;27.70;40.80
15156;DHT22;7678;50.058;8.306;2023-07-13T12:04:45;28.00;41.20
15156;DHT22;7678;50.058;8.306;2023-07-13T12:07:17;28.20;41.90
15156;DHT22;7678;50.058;8.306;2023-07-13T12:09:52;28.00;41.60
15156;DHT22;7678;50.058;8.306;2023-07-13T12:12:22;28.70;41.00
15156;DHT22;7678;50.058;8.306;2023-07-13T12:14:51;29.20;41.00
15156;DHT22;7678;50.058;8.306;2023-07-13T12:17:22;29.10;40.60
15156;DHT22;7678;50.058;8.306;2023-07-13T12:19:53;28.70;40.80
15156;DHT22;7678;50.058;8.306;2023-07-13T12:22:23;28.30;40.90
15156;DHT22;7678;50.058;8.306;2023-07-13T12:24:54;27.70;41.10
15156;DHT22;7678;50.058;8.306;2023-07-13T12:27:26;28.10;41.00
15156;DHT22;7678;50.058;8.306;2023-07-13T12:29:59;28.80;39.80
15156;DHT22;7678;50.058;8.306;2023-07-13T12:32:28;28.50;40.20
15156;DHT22;7678;50.058;8.306;2023-07-13T12:35:13;28.30;41.50
15156;DHT22;7678;50.058;8.306;2023-07-13T12:37:46;27.70;41.60
15156;DHT22;7678;50.058;8.306;2023-07-13T12:40:15;27.50;41.10
15156;DHT22;7678;50.058;8.306;2023-07-13T12:42:46;27.20;41.40
15156;DHT22;7678;50.058;8.306;2023-07-13T12:45:22;27.00;41.80
15156;DHT22;7678;50.058;8.306;2023-07-13T12:47:55;26.80;41.70
15156;DHT22;7678;50.058;8.306;2023-07-13T12:50:30;26.80;41.50
15156;DHT22;7678;50.058;8.306;2023-07-13T12:53:13;26.70;42.20
15156;DHT22;7678;50.058;8.306;2023-07-13T12:55:43;26.50;42.30
15156;DHT22;7678;50.058;8.306;2023-07-13T12:58:17;26.50;42.90
15156;DHT22;7678;50.058;8.306;2023-07-13T13:00:51;26.50;43.70
15156;DHT22;7678;50.058;8.306;2023-07-13T13:03:24;26.60;43.30
15156;DHT22;7678;50.058;8.306;2023-07-13T13:05:59;26.50;43.40
15156;DHT22;7678;50.058;8.306;2023-07-13T13:08:32;26.50;42.70
15156;DHT22;7678;50.058;8.306;2023-07-13T13:11:03;26.60;43.10
15156;DHT22;7678;50.058;8.306;2023-07-13T13:13:33;27.00;42.90
15156;DHT22;7678;50.058;8.306;2023-07-13T13:16:02;26.40;43.20
15156;DHT22;7678;50.058;8.306;2023-07-13T13:18:33;26.50;43.00
15156;DHT22;7678;50.058;8.306;2023-07-13T13:21:06;26.10;43.20
15156;DHT22;7678;50.058;8.306;2023-07-13T13:23:37;25.90;43.20
15156;DHT22;7678;50.058;8.306;2023-07-13T13:26:10;26.30;44.80
15156;DHT22;7678;50.058;8.306;2023-07-13T13:28:39;26.70;44.40
15156;DHT22;7678;50.058;8.306;2023-07-13T13:31:08;26.50;43.70
15156;DHT22;7678;50.058;8.306;2023-07-13T13:33:40;26.40;42.80
15156;DHT22;7678;50.058;8.306;2023-07-13T13:36:15;26.20;43.90
15156;DHT22;7678;50.058;8.306;2023-07-13T13:38:47;26.40;44.40
15156;DHT22;7678;50.058;8.306;2023-07-13T13:41:15;26.50;44.00
15156;DHT22;7678;50.058;8.306;2023-07-13T13:43:44;26.40;43.60
15156;DHT22;7678;50.058;8.306;2023-07-13T13:46:15;25.90;43.00
15156;DHT22;7678;50.058;8.306;2023-07-13T13:48:44;25.50;44.30
15156;DHT22;7678;50.058;8.306;2023-07-13T13:51:15;25.30;43.80
15156;DHT22;7678;50.058;8.306;2023-07-13T13:53:48;25.30;45.90
15156;DHT22;7678;50.058;8.306;2023-07-13T13:56:19;25.40;44.10
15156;DHT22;7678;50.058;8.306;2023-07-13T13:58:47;24.90;45.00
15156;DHT22;7678;50.058;8.306;2023-07-13T14:01:18;24.80;45.60
15156;DHT22;7678;50.058;8.306;2023-07-13T14:03:47;24.80;46.20
15156;DHT22;7678;50.058;8.306;2023-07-13T14:06:18;25.10;45.60
15156;DHT22;7678;50.058;8.306;2023-07-13T14:08:48;25.20;45.70
15156;DHT22;7678;50.058;8.306;2023-07-13T14:11:18;25.50;45.30
15156;DHT22;7678;50.058;8.306;2023-07-13T14:13:49;25.40;45.40
15156;DHT22;7678;50.058;8.306;2023-07-13T14:16:19;26.30;45.20
15156;DHT22;7678;50.058;8.306;2023-07-13T14:18:49;26.20;46.10
15156;DHT22;7678;50.058;8.306;2023-07-13T14:21:20;26.00;45.70
15156;DHT22;7678;50.058;8.306;2023-07-13T14:23:51;25.50;45.70
15156;DHT22;7678;50.058;8.306;2023-07-13T14:26:20;25.50;45.50
15156;DHT22;7678;50.058;8.306;2023-07-13T14:28:51;25.40;45.60
15156;DHT22;7678;50.058;8.306;2023-07-13T14:31:21;25.10;46.00
15156;DHT22;7678;50.058;8.306;2023-07-13T14:33:55;24.80;45.60
15156;DHT22;7678;50.058;8.306;2023-07-13T14:36:28;25.00;47.10
15156;DHT22;7678;50.058;8.306;2023-07-13T14:39:00;25.10;46.50
15156;DHT22;7678;50.058;8.306;2023-07-13T14:41:29;25.00;45.80
15156;DHT22;7678;50.058;8.306;2023-07-13T14:43:58;24.90;45.70
15156;DHT22;7678;50.058;8.306;2023-07-13T14:46:30;25.00;45.10
15156;DHT22;7678;50.058;8.306;2023-07-13T14:49:02;25.10;46.40
15156;DHT22;7678;50.058;8.306;2023-07-13T14:51:31;25.40;45.10
15156;DHT22;7678;50.058;8.306;2023-07-13T14:54:04;25.50;44.90
15156;DHT22;7678;50.058;8.306;2023-07-13T14:56:33;25.40;44.90
15156;DHT22;7678;50.058;8.306;2023-07-13T14:59:01;25.30;44.50
15156;DHT22;7678;50.058;8.306;2023-07-13T15:01:29;25.30;44.60
15156;DHT22;7678;50.058;8.306;2023-07-13T15:03:58;25.40;45.50
15156;DHT22;7678;50.058;8.306;2023-07-13T15:06:27;25.50;44.60
15156;DHT22;7678;50.058;8.306;2023-07-13T15:08:55;25.80;44.90
15156;DHT22;7678;50.058;8.306;2023-07-13T15:11:25;26.00;43.50
15156;DHT22;7678;50.058;8.306;2023-07-13T15:13:53;25.70;44.30
15156;DHT22;7678;50.058;8.306;2023-07-13T15:16:24;25.50;45.00
15156;DHT22;7678;50.058;8.306;2023-07-13T15:18:53;25.60;44.50
15156;DHT22;7678;50.058;8.306;2023-07-13T15:21:23;25.60;44.90
15156;DHT22;7678;50.058;8.306;2023-07-13T15:23:51;25.50;44.20
15156;DHT22;7678;50.058;8.306;2023-07-13T15:26:21;25.70;44.70
15156;DHT22;7678;50.058;8.306;2023-07-13T15:28:50;25.60;43.60
15156;DHT22;7678;50.058;8.306;2023-07-13T15:31:21;25.40;43.70
15156;DHT22;7678;50.058;8.306;2023-07-13T15:33:51;25.20;43.40
15156;DHT22;7678;50.058;8.306;2023-07-13T15:36:20;25.20;43.40
15156;DHT22;7678;50.058;8.306;2023-07-13T15:38:50;25.30;43.60
15156;DHT22;7678;50.058;8.306;2023-07-13T15:41:21;25.60;43.60
15156;DHT22;7678;50.058;8.306;2023-07-13T15:43:53;25.80;43.80
15156;DHT22;7678;50.058;8.306;2023-07-13T15:46:22;26.50;43.60
15156;DHT22;7678;50.058;8.306;2023-07-13T15:48:52;26.50;43.50
15156;DHT22;7678;50.058;8.306;2023-07-13T15:51:24;26.50;42.20
15156;DHT22;7678;50.058;8.306;2023-07-13T15:53:55;26.20;42.50
15156;DHT22;7678;50.058;8.306;2023-07-13T15:56:26;26.20;43.50
15156;DHT22;7678;50.058;8.306;2023-07-13T15:58:56;26.50;43.20
15156;DHT22;7678;50.058;8.306;2023-07-13T16:01:25;26.10;42.80
15156;DHT22;7678;50.058;8.306;2023-07-13T16:03:54;26.20;43.10
15156;DHT22;7678;50.058;8.306;2023-07-13T16:06:24;26.60;42.50
15156;DHT22;7678;50.058;8.306;2023-07-13T16:08:53;26.90;42.40
15156;DHT22;7678;50.058;8.306;2023-07-13T16:11:27;27.00;43.10
15156;DHT22;7678;50.058;8.306;2023-07-13T16:14:05;26.90;43.50
15156;DHT22;7678;50.058;8.306;2023-07-13T16:16:34;26.80;41.40